Time;durP1;ratioP1;P1;durP2;ratioP2;P2;SDS_P1;SDS_P2;PMS_P1;PMS_P2;Temp;Humidity;BMP_temperature;BMP_pressure;BME280_temperature;BME280_humidity;BME280_pressure;Samples;Min_cycle;Max_cycle;Signal;HPM_P1;HPM_P2
2022/06/24 00:00:10;;;;;;;1.50;0.90;;;22.50;98.20;;;;;;4991838;28;20485;-81
2022/06/24 00:02:38;;;;;;;1.47;0.90;;;22.50;98.20;;;;;;4989435;28;20516;-82
2022/06/24 00:05:09;;;;;;;1.47;0.90;;;22.50;98.20;;;;;;4992045;28;20466;-82
2022/06/24 00:07:46;;;;;;;1.47;0.90;;;22.50;98.20;;;;;;4996010;28;20476;-82
2022/06/24 00:10:15;;;;;;;1.43;0.90;;;22.60;98.20;;;;;;4990966;28;20462;-82
2022/06/24 00:12:44;;;;;;;1.43;0.90;;;22.60;98.20;;;;;;4989254;28;20670;-82
2022/06/24 00:15:13;;;;;;;1.50;0.90;;;22.60;98.20;;;;;;4989098;28;20486;-81
2022/06/24 00:17:43;;;;;;;1.50;0.90;;;22.60;98.20;;;;;;4990995;28;20497;-82
2022/06/24 00:20:17;;;;;;;1.43;0.90;;;22.60;98.20;;;;;;4991142;28;20485;-81
2022/06/24 00:22:49;;;;;;;1.47;0.90;;;22.60;98.20;;;;;;4997545;28;20491;-82
2022/06/24 00:25:19;;;;;;;1.60;1.30;;;22.60;98.20;;;;;;4990988;28;20497;-82
2022/06/24 00:28:00;;;;;;;1.50;0.90;;;22.60;98.20;;;;;;4991178;28;20458;-83
2022/06/24 00:30:26;;;;;;;1.47;0.90;;;22.60;98.20;;;;;;4986321;28;20534;-82
2022/06/24 00:33:10;;;;;;;1.47;0.90;;;22.60;98.20;;;;;;4980709;28;20544;-81
2022/06/24 00:35:39;;;;;;;1.50;0.90;;;22.60;98.20;;;;;;4992058;28;20462;-82
2022/06/24 00:38:22;;;;;;;1.50;1.00;;;22.40;98.20;;;;;;4977376;28;20493;-80
2022/06/24 00:40:53;;;;;;;1.50;0.90;;;22.20;98.20;;;;;;4974615;28;20462;-77
2022/06/24 00:43:28;;;;;;;1.50;0.90;;;22.10;98.20;;;;;;4972465;28;20509;-79
2022/06/24 00:46:06;;;;;;;1.47;0.90;;;22.00;98.20;;;;;;4971873;28;20532;-77
2022/06/24 00:48:38;;;;;;;1.50;0.90;;;22.00;98.20;;;;;;4969847;28;20697;-78
2022/06/24 00:51:07;;;;;;;1.50;0.90;;;22.00;98.20;;;;;;4965591;28;20489;-79
2022/06/24 00:53:45;;;;;;;1.50;0.90;;;21.90;98.20;;;;;;4984254;28;20481;-80
2022/06/24 00:56:16;;;;;;;1.43;0.90;;;22.00;98.20;;;;;;4971747;28;20488;-78
2022/06/24 01:22:30;;;;;;;1.47;0.90;;;21.80;98.20;;;;;;4976523;28;20535;-80
2022/06/24 01:24:57;;;;;;;1.43;0.90;;;21.80;98.20;;;;;;4972564;28;20478;-83
2022/06/24 01:27:24;;;;;;;1.47;0.90;;;21.80;98.20;;;;;;4981017;28;20471;-80
2022/06/24 01:29:51;;;;;;;1.50;0.90;;;21.80;98.20;;;;;;4985025;28;20486;-84
2022/06/24 01:32:18;;;;;;;1.43;0.90;;;21.80;98.20;;;;;;4976475;28;21129;-82
2022/06/24 01:34:45;;;;;;;1.50;1.00;;;21.80;98.20;;;;;;4985677;28;20466;-81
2022/06/24 01:37:12;;;;;;;1.47;0.90;;;21.80;98.20;;;;;;4981230;28;20478;-81
2022/06/24 01:39:40;;;;;;;1.47;0.90;;;21.80;98.20;;;;;;4979923;28;20510;-85
2022/06/24 01:42:08;;;;;;;1.50;0.90;;;21.80;98.20;;;;;;4986219;28;20458;-83
2022/06/24 01:44:35;;;;;;;1.60;1.47;;;21.80;98.20;;;;;;4985032;28;20516;-84
2022/06/24 01:47:03;;;;;;;1.50;0.90;;;21.80;98.20;;;;;;4994539;28;20556;-84
2022/06/24 01:49:45;;;;;;;2.70;2.50;;;21.80;98.20;;;;;;4998558;28;21064;-82
2022/06/24 01:52:12;;;;;;;1.50;1.00;;;21.70;98.20;;;;;;4978800;28;20469;-86
2022/06/24 01:54:41;;;;;;;1.50;0.90;;;21.70;98.20;;;;;;4985161;28;20458;-83
2022/06/24 01:57:08;;;;;;;1.50;0.90;;;21.60;98.20;;;;;;4992657;28;20500;-82
2022/06/24 01:59:35;;;;;;;1.40;0.90;;;21.50;98.20;;;;;;4985290;28;20565;-84
2022/06/24 02:02:05;;;;;;;1.50;0.90;;;21.50;98.20;;;;;;4990915;28;20481;-84
2022/06/24 02:04:32;;;;;;;1.50;0.90;;;21.50;98.20;;;;;;4992167;28;20553;-81
2022/06/24 02:06:59;;;;;;;1.47;0.90;;;21.40;98.20;;;;;;4989853;28;20512;-84
2022/06/24 02:09:26;;;;;;;1.50;0.90;;;21.40;98.20;;;;;;4979836;28;20545;-79
2022/06/24 02:14:39;;;;;;;1.47;0.90;;;21.30;98.20;;;;;;4974476;28;20590;-80
2022/06/24 02:17:06;;;;;;;1.50;0.90;;;21.30;98.20;;;;;;4974908;28;20488;-80
2022/06/24 02:19:33;;;;;;;1.50;0.90;;;21.20;98.20;;;;;;4986126;28;20497;-81
2022/06/24 02:22:00;;;;;;;1.50;0.90;;;21.20;98.20;;;;;;4989231;28;20533;-82
2022/06/24 02:24:27;;;;;;;1.50;0.90;;;21.10;98.20;;;;;;4988029;28;20561;-83
2022/06/24 02:26:55;;;;;;;1.50;0.90;;;21.10;98.20;;;;;;4981944;28;20525;-82
2022/06/24 02:29:22;;;;;;;1.53;1.07;;;21.10;98.20;;;;;;4997596;28;20717;-83
2022/06/24 02:31:49;;;;;;;1.47;0.93;;;21.00;98.20;;;;;;4989516;28;20568;-83
2022/06/24 02:34:16;;;;;;;1.50;0.90;;;21.00;98.20;;;;;;4990847;28;20462;-82
2022/06/24 02:36:43;;;;;;;1.40;0.90;;;20.90;98.20;;;;;;4985586;28;20559;-82
2022/06/24 02:39:10;;;;;;;1.50;0.90;;;20.90;98.20;;;;;;4996878;28;20505;-81
2022/06/24 02:41:37;;;;;;;1.50;0.90;;;20.90;98.20;;;;;;4988313;28;20477;-81
2022/06/24 02:44:06;;;;;;;1.50;0.90;;;20.90;98.20;;;;;;4984410;28;20578;-80
2022/06/24 02:46:33;;;;;;;1.43;0.90;;;21.00;98.20;;;;;;4980376;28;20534;-80
2022/06/24 02:49:00;;;;;;;1.47;0.90;;;21.00;98.20;;;;;;4982009;28;20492;-80
2022/06/24 02:51:27;;;;;;;1.50;0.90;;;21.10;98.20;;;;;;4973777;28;20495;-80
2022/06/24 02:53:54;;;;;;;1.50;1.00;;;21.10;98.20;;;;;;4992528;28;20541;-80
2022/06/24 02:56:21;;;;;;;1.50;0.90;;;21.10;98.20;;;;;;4978701;28;20505;-79
2022/06/24 02:58:48;;;;;;;1.47;0.90;;;21.10;98.20;;;;;;4971233;28;20857;-79
2022/06/24 03:01:16;;;;;;;1.50;0.90;;;21.10;98.20;;;;;;4960138;28;21064;-79
2022/06/24 03:03:43;;;;;;;1.50;0.90;;;21.20;98.20;;;;;;4974066;28;20500;-80
2022/06/24 03:06:10;;;;;;;1.47;0.90;;;21.20;98.20;;;;;;4978887;28;20493;-81
2022/06/24 03:08:37;;;;;;;1.50;1.00;;;21.20;98.20;;;;;;4988550;23;20554;-75
2022/06/24 03:11:04;;;;;;;1.47;0.90;;;21.20;98.20;;;;;;4969897;28;20458;-75
2022/06/24 03:13:31;;;;;;;1.47;0.90;;;21.20;98.20;;;;;;4968030;28;20810;-75
2022/06/24 03:15:58;;;;;;;1.47;0.90;;;21.20;98.20;;;;;;4961571;28;20464;-75
2022/06/24 03:18:26;;;;;;;1.50;0.90;;;21.20;98.20;;;;;;4998169;28;21021;-75
2022/06/24 03:20:53;;;;;;;1.50;0.90;;;21.20;98.20;;;;;;4968575;28;21084;-75
2022/06/24 03:23:20;;;;;;;1.47;0.90;;;21.20;98.20;;;;;;4972432;28;20498;-75
2022/06/24 03:25:47;;;;;;;1.50;0.90;;;21.20;98.20;;;;;;4967459;28;20470;-75
2022/06/24 03:28:14;;;;;;;1.50;0.90;;;21.20;98.20;;;;;;5002674;28;20514;-75
2022/06/24 03:30:41;;;;;;;1.50;0.90;;;21.20;98.20;;;;;;4972432;28;20468;-75
2022/06/24 03:33:08;;;;;;;1.43;0.90;;;21.20;98.20;;;;;;4971350;28;20969;-75
2022/06/24 03:35:36;;;;;;;1.47;0.90;;;21.20;98.20;;;;;;4976794;28;20461;-75
2022/06/24 03:38:03;;;;;;;1.50;0.90;;;21.20;98.20;;;;;;4971648;28;20596;-75
2022/06/24 03:40:30;;;;;;;1.50;0.87;;;21.20;98.20;;;;;;4972325;28;20472;-75
2022/06/24 03:42:57;;;;;;;1.47;0.90;;;21.20;98.20;;;;;;4992656;28;20869;-75
2022/06/24 03:45:24;;;;;;;1.47;0.90;;;21.10;98.20;;;;;;4972871;28;20458;-76
2022/06/24 03:47:51;;;;;;;1.50;0.90;;;21.10;98.20;;;;;;4993315;28;20549;-75
2022/06/24 03:50:17;;;;;;;1.50;0.90;;;20.90;98.20;;;;;;4974508;28;20472;-75
2022/06/24 03:52:46;;;;;;;1.50;0.90;;;20.90;98.20;;;;;;4969711;28;20473;-75
2022/06/24 03:55:13;;;;;;;1.50;0.90;;;21.00;98.20;;;;;;4971997;28;20485;-75
2022/06/24 03:57:40;;;;;;;1.47;0.90;;;21.10;98.20;;;;;;4992383;28;20480;-76
2022/06/24 04:00:08;;;;;;;1.47;0.90;;;21.10;98.20;;;;;;4972455;28;20478;-75
2022/06/24 04:02:35;;;;;;;1.50;0.90;;;21.20;98.20;;;;;;4970807;28;20466;-75
2022/06/24 04:05:02;;;;;;;1.50;0.90;;;21.20;98.20;;;;;;4971564;28;20473;-75
2022/06/24 04:07:28;;;;;;;1.47;0.90;;;21.20;98.20;;;;;;4971429;28;20484;-75
2022/06/24 04:09:56;;;;;;;1.47;0.90;;;21.20;98.20;;;;;;4971090;28;20497;-75
2022/06/24 04:12:23;;;;;;;1.47;0.90;;;21.20;98.20;;;;;;4987292;28;20492;-75
2022/06/24 04:17:35;;;;;;;1.50;0.90;;;21.10;98.20;;;;;;4989706;28;20483;-75
2022/06/24 04:20:02;;;;;;;1.50;0.90;;;21.20;98.20;;;;;;4979259;28;20486;-75
2022/06/24 04:22:29;;;;;;;1.50;0.90;;;21.20;98.20;;;;;;4984712;28;20587;-75
2022/06/24 04:24:57;;;;;;;1.50;0.90;;;21.20;98.20;;;;;;4972805;28;20818;-75
2022/06/24 04:27:24;;;;;;;1.47;0.90;;;21.20;98.20;;;;;;4967670;28;20466;-76
2022/06/24 04:29:50;;;;;;;1.43;0.90;;;21.20;98.20;;;;;;4975469;28;20492;-75
2022/06/24 04:32:17;;;;;;;1.47;0.90;;;21.20;98.20;;;;;;4969501;28;20482;-76
2022/06/24 04:34:45;;;;;;;1.47;0.90;;;21.30;98.20;;;;;;4974392;28;20486;-75
2022/06/24 04:37:11;;;;;;;1.50;0.90;;;21.30;98.20;;;;;;4977424;28;20495;-76
2022/06/24 04:39:42;;;;;;;1.50;0.90;;;21.30;98.20;;;;;;4980845;28;20489;-74
2022/06/24 04:42:11;;;;;;;1.47;0.90;;;21.30;98.20;;;;;;4969279;28;21175;-74
2022/06/24 04:44:37;;;;;;;1.47;0.90;;;21.30;98.20;;;;;;4965211;28;20847;-75
2022/06/24 04:47:05;;;;;;;1.50;0.90;;;21.30;98.20;;;;;;4965950;28;20462;-76
2022/06/24 04:49:33;;;;;;;1.50;0.90;;;21.30;98.20;;;;;;4970597;28;20486;-76
2022/06/24 04:52:00;;;;;;;1.47;0.90;;;21.30;98.20;;;;;;4971353;28;21004;-76
2022/06/24 04:54:27;;;;;;;1.50;0.90;;;21.30;98.20;;;;;;4972925;28;20486;-76
2022/06/24 04:56:53;;;;;;;1.47;0.90;;;21.30;98.20;;;;;;4977926;28;20498;-76
2022/06/24 04:59:22;;;;;;;1.50;0.90;;;21.30;98.20;;;;;;4983048;28;20518;-75
2022/06/24 05:01:49;;;;;;;1.50;0.90;;;21.30;98.20;;;;;;4978393;28;20538;-76
2022/06/24 05:04:15;;;;;;;1.50;0.90;;;21.30;98.20;;;;;;4987587;28;20553;-75
2022/06/24 05:06:42;;;;;;;1.63;1.37;;;21.30;98.20;;;;;;4967346;28;20477;-76
2022/06/24 05:09:09;;;;;;;1.43;0.90;;;21.20;98.20;;;;;;4975431;28;20496;-75
2022/06/24 05:11:36;;;;;;;1.50;0.90;;;21.20;98.20;;;;;;4971144;28;20484;-75
2022/06/24 05:14:03;;;;;;;1.43;0.90;;;21.20;98.20;;;;;;4989054;28;20486;-74
2022/06/24 05:16:31;;;;;;;1.47;0.90;;;21.20;98.20;;;;;;4970068;28;20466;-73
2022/06/24 05:18:58;;;;;;;1.50;0.90;;;21.20;98.20;;;;;;4965990;28;20490;-74
2022/06/24 05:21:25;;;;;;;1.50;0.90;;;21.20;98.20;;;;;;4967718;28;20484;-75
2022/06/24 05:23:51;;;;;;;1.47;0.90;;;21.30;98.20;;;;;;4987908;28;20470;-76
2022/06/24 05:26:19;;;;;;;1.47;0.90;;;21.30;98.20;;;;;;4969196;28;20474;-75
2022/06/24 05:28:46;;;;;;;1.50;0.90;;;21.20;98.20;;;;;;4973569;28;20485;-76
2022/06/24 05:31:13;;;;;;;1.43;0.90;;;21.20;98.20;;;;;;4960496;28;21075;-76
2022/06/24 05:33:41;;;;;;;1.47;0.90;;;21.30;98.20;;;;;;4979072;28;20954;-76
2022/06/24 05:36:08;;;;;;;4.07;2.33;;;21.30;98.20;;;;;;4968270;28;20476;-75
2022/06/24 05:38:35;;;;;;;1.50;1.13;;;21.30;98.20;;;;;;4969280;28;20488;-75
2022/06/24 05:41:03;;;;;;;1.50;0.90;;;21.30;98.20;;;;;;4962255;28;20468;-76
2022/06/24 05:43:30;;;;;;;1.43;0.90;;;21.40;98.20;;;;;;4996831;28;20466;-75
2022/06/24 05:45:57;;;;;;;1.47;0.90;;;21.40;98.20;;;;;;4961237;28;20458;-74
2022/06/24 05:48:25;;;;;;;1.50;0.90;;;21.50;98.20;;;;;;4995842;28;20500;-75
2022/06/24 05:50:53;;;;;;;1.47;0.90;;;21.50;98.20;;;;;;4960037;28;20752;-75
2022/06/24 05:56:05;;;;;;;1.43;0.90;;;21.50;98.20;;;;;;4970452;28;20842;-75
2022/06/24 05:58:32;;;;;;;1.50;0.90;;;21.60;98.20;;;;;;4969276;28;20493;-75
2022/06/24 06:00:59;;;;;;;1.50;0.90;;;21.60;98.20;;;;;;4963463;28;20466;-75
2022/06/24 06:03:26;;;;;;;1.47;0.90;;;21.60;98.20;;;;;;4996974;28;20938;-74
2022/06/24 06:05:55;;;;;;;1.43;0.90;;;21.50;98.20;;;;;;4960264;28;20462;-73
2022/06/24 06:08:22;;;;;;;1.50;0.90;;;21.50;98.20;;;;;;4999324;28;21026;-75
2022/06/24 06:10:49;;;;;;;1.43;0.90;;;21.50;98.20;;;;;;4955671;28;20473;-74
2022/06/24 06:13:16;;;;;;;1.50;0.90;;;21.50;98.20;;;;;;4980654;28;20473;-76
2022/06/24 06:15:45;;;;;;;1.50;0.90;;;21.50;98.20;;;;;;4965542;28;20512;-76
2022/06/24 06:18:12;;;;;;;1.50;0.90;;;21.60;98.20;;;;;;4967825;28;20486;-75
2022/06/24 06:20:40;;;;;;;1.50;0.90;;;21.70;98.20;;;;;;4968937;28;20481;-75
2022/06/24 06:23:08;;;;;;;1.43;0.90;;;21.80;98.20;;;;;;4967725;28;20488;-76
2022/06/24 06:25:35;;;;;;;1.50;0.90;;;21.80;98.20;;;;;;4972187;28;20561;-76
2022/06/24 06:28:02;;;;;;;1.50;0.90;;;21.80;98.20;;;;;;4965786;28;20522;-76
2022/06/24 06:30:30;;;;;;;1.50;0.90;;;21.90;98.20;;;;;;4970571;28;20477;-76
2022/06/24 06:32:57;;;;;;;1.47;0.90;;;21.90;98.20;;;;;;4990205;28;20483;-76
2022/06/24 06:35:24;;;;;;;1.50;0.90;;;21.90;98.20;;;;;;4970250;28;20489;-76
2022/06/24 06:37:51;;;;;;;1.50;0.90;;;22.00;98.20;;;;;;4987378;28;20498;-76
2022/06/24 06:40:19;;;;;;;1.50;0.90;;;22.00;98.20;;;;;;4968553;28;20485;-75
2022/06/24 06:42:46;;;;;;;1.50;0.90;;;22.00;98.20;;;;;;4964253;28;20474;-77
2022/06/24 06:45:13;;;;;;;1.50;0.90;;;22.00;98.20;;;;;;4965457;28;20854;-77
2022/06/24 06:47:40;;;;;;;1.50;0.90;;;22.00;98.20;;;;;;4984631;28;20491;-74
2022/06/24 06:50:07;;;;;;;1.50;0.90;;;22.10;98.20;;;;;;4966850;28;20492;-74
2022/06/24 06:52:34;;;;;;;1.50;0.90;;;22.10;98.20;;;;;;4983908;28;20492;-76
2022/06/24 06:55:02;;;;;;;1.50;0.90;;;22.10;98.20;;;;;;4970106;28;20504;-75
2022/06/24 06:57:30;;;;;;;1.50;0.90;;;22.10;98.20;;;;;;4982881;28;21067;-75
2022/06/24 06:59:57;;;;;;;1.50;0.90;;;22.20;98.20;;;;;;4970561;28;20489;-75
2022/06/24 07:02:24;;;;;;;1.50;0.90;;;22.20;98.20;;;;;;4984416;28;20558;-77
2022/06/24 07:04:50;;;;;;;1.47;0.90;;;22.30;98.20;;;;;;4976767;28;20469;-76
2022/06/24 07:07:17;;;;;;;1.50;0.90;;;22.30;98.20;;;;;;4968668;28;20476;-76
2022/06/24 07:09:44;;;;;;;1.50;0.90;;;22.40;98.20;;;;;;4967994;28;21097;-76
2022/06/24 07:12:11;;;;;;;1.50;0.90;;;22.40;98.20;;;;;;4971554;28;20491;-75
2022/06/24 07:14:42;;;;;;;1.47;0.90;;;22.40;98.20;;;;;;4970912;28;20867;-74
2022/06/24 07:17:09;;;;;;;1.50;0.90;;;22.40;98.20;;;;;;4969246;28;20809;-75
2022/06/24 07:19:36;;;;;;;1.60;1.00;;;22.30;98.20;;;;;;4967576;28;21344;-74
2022/06/24 07:22:04;;;;;;;1.50;0.90;;;22.20;98.20;;;;;;4978411;28;20502;-74
2022/06/24 07:24:31;;;;;;;1.50;0.90;;;22.10;98.20;;;;;;4985427;28;20500;-73
2022/06/24 07:26:58;;;;;;;1.43;0.90;;;22.00;98.20;;;;;;4973603;28;20465;-73
2022/06/24 07:29:24;;;;;;;1.50;0.90;;;21.90;98.20;;;;;;4973299;28;20485;-76
2022/06/24 07:31:52;;;;;;;1.43;0.90;;;21.70;98.20;;;;;;4965271;28;20489;-75
2022/06/24 07:34:19;;;;;;;1.50;0.90;;;21.60;98.20;;;;;;4975457;28;20465;-75
2022/06/24 07:36:46;;;;;;;1.50;0.90;;;21.40;98.20;;;;;;4976510;28;20577;-74
2022/06/24 07:39:13;;;;;;;1.50;0.90;;;21.30;98.20;;;;;;4986401;28;20481;-74
2022/06/24 07:41:40;;;;;;;1.43;0.90;;;21.20;98.20;;;;;;4967190;28;20472;-74
2022/06/24 07:44:07;;;;;;;1.50;0.90;;;21.10;98.20;;;;;;4968195;28;20474;-74
2022/06/24 07:46:33;;;;;;;1.50;0.90;;;21.10;98.20;;;;;;4966267;28;20515;-74
2022/06/24 07:49:01;;;;;;;1.50;0.90;;;21.00;98.20;;;;;;4976188;28;20504;-73
2022/06/24 07:51:29;;;;;;;1.50;0.90;;;21.00;98.20;;;;;;4962705;28;21042;-74
2022/06/24 07:53:55;;;;;;;1.50;1.00;;;21.00;98.20;;;;;;4972200;28;21013;-75
2022/06/24 07:59:07;;;;;;;1.50;1.00;;;20.90;98.20;;;;;;4973995;28;20636;-74
2022/06/24 08:01:34;;;;;;;1.47;0.90;;;20.80;98.20;;;;;;4965149;28;20487;-73
2022/06/24 08:04:07;;;;;;;1.50;0.90;;;20.80;98.20;;;;;;4975116;28;20476;-73
2022/06/24 08:06:35;;;;;;;1.50;0.90;;;20.80;98.20;;;;;;4970727;28;20473;-73
2022/06/24 08:09:02;;;;;;;1.50;0.90;;;20.80;98.20;;;;;;4974370;28;21042;-73
2022/06/24 08:11:29;;;;;;;1.50;0.90;;;20.80;98.20;;;;;;4967743;28;20491;-73
2022/06/24 08:13:55;;;;;;;1.50;0.90;;;20.80;98.20;;;;;;4987222;28;21044;-73
2022/06/24 08:16:22;;;;;;;1.50;0.90;;;20.90;98.20;;;;;;4964591;28;20520;-74
2022/06/24 08:18:49;;;;;;;1.47;0.90;;;20.90;98.20;;;;;;4967845;28;21069;-74
2022/06/24 08:21:17;;;;;;;1.47;0.80;;;21.00;98.20;;;;;;4963950;28;20462;-75
2022/06/24 08:23:44;;;;;;;1.47;0.90;;;21.00;98.20;;;;;;4970754;28;20470;-74
2022/06/24 08:26:11;;;;;;;1.50;0.90;;;21.00;98.20;;;;;;4965744;28;20877;-74
2022/06/24 08:28:39;;;;;;;1.50;0.90;;;21.00;98.20;;;;;;4976223;28;20561;-74
2022/06/24 08:31:06;;;;;;;1.47;0.90;;;21.00;98.20;;;;;;4962297;28;20469;-74
2022/06/24 08:33:34;;;;;;;1.40;0.90;;;21.00;98.20;;;;;;4969945;28;20517;-74
2022/06/24 08:36:01;;;;;;;1.50;0.90;;;21.00;98.20;;;;;;4956178;28;20498;-75
2022/06/24 08:38:30;;;;;;;1.50;0.90;;;21.00;98.20;;;;;;4994771;28;20494;-73
2022/06/24 08:41:02;;;;;;;1.47;0.90;;;21.10;98.20;;;;;;4970258;28;20462;-75
2022/06/24 08:43:32;;;;;;;1.50;0.90;;;21.10;98.20;;;;;;4973507;28;20473;-73
2022/06/24 08:46:00;;;;;;;1.50;0.90;;;21.10;98.20;;;;;;4971420;28;20562;-75
2022/06/24 08:48:28;;;;;;;1.40;0.83;;;21.10;98.20;;;;;;4998082;28;20851;-74
2022/06/24 08:50:57;;;;;;;1.50;0.90;;;21.20;98.20;;;;;;4972053;28;20929;-76
2022/06/24 08:53:27;;;;;;;1.50;1.17;;;21.20;98.20;;;;;;4979109;28;20461;-75
2022/06/24 08:55:58;;;;;;;1.47;0.90;;;21.20;98.20;;;;;;4971530;28;20490;-76
2022/06/24 08:58:25;;;;;;;1.60;1.10;;;21.30;98.20;;;;;;4972157;28;20520;-74
2022/06/24 09:00:56;;;;;;;1.40;0.90;;;21.30;98.20;;;;;;4973192;28;20529;-74
2022/06/24 09:03:23;;;;;;;1.50;0.90;;;21.30;98.20;;;;;;4972181;28;20478;-74
2022/06/24 09:05:50;;;;;;;1.43;0.90;;;21.30;98.20;;;;;;4961342;28;20462;-74
2022/06/24 09:08:18;;;;;;;1.47;0.90;;;21.40;98.20;;;;;;4996158;28;21012;-74
2022/06/24 09:11:06;;;;;;;1.50;1.00;;;21.40;98.20;;;;;;4968757;28;20505;-74
2022/06/24 09:13:42;;;;;;;1.50;0.90;;;21.40;98.20;;;;;;4967484;28;20458;-74
2022/06/24 09:16:09;;;;;;;1.43;0.90;;;21.40;98.20;;;;;;4958135;28;20489;-74
2022/06/24 09:18:37;;;;;;;1.50;0.93;;;21.50;98.20;;;;;;4978721;28;20568;-74
2022/06/24 09:21:04;;;;;;;1.60;1.10;;;21.60;98.20;;;;;;4966914;28;20485;-75
2022/06/24 09:23:32;;;;;;;1.50;0.90;;;21.70;98.20;;;;;;4972694;28;20528;-75
2022/06/24 09:26:01;;;;;;;1.50;0.90;;;21.80;98.20;;;;;;4963471;28;20906;-75
2022/06/24 09:28:31;;;;;;;1.43;0.90;;;21.90;98.20;;;;;;4999109;28;20485;-75
2022/06/24 09:31:04;;;;;;;1.50;0.90;;;22.10;98.20;;;;;;4959830;28;20466;-75
2022/06/24 09:33:38;;;;;;;1.50;0.90;;;22.30;98.20;;;;;;4983522;28;20546;-75
2022/06/24 09:36:06;;;;;;;1.50;0.90;;;22.50;98.20;;;;;;4960873;28;20508;-75
2022/06/24 09:38:35;;;;;;;1.50;0.87;;;22.70;98.20;;;;;;4983589;28;20485;-75
2022/06/24 09:41:04;;;;;;;1.50;0.90;;;22.90;98.20;;;;;;4972749;28;20465;-75
2022/06/24 09:43:32;;;;;;;1.50;0.90;;;23.10;98.20;;;;;;4970422;28;20568;-74
2022/06/24 09:46:00;;;;;;;1.50;0.90;;;23.40;98.20;;;;;;4962372;28;20458;-74
2022/06/24 09:48:32;;;;;;;1.50;0.90;;;23.70;98.20;;;;;;4996981;28;20549;-75
2022/06/24 09:51:01;;;;;;;1.50;0.90;;;24.10;98.20;;;;;;4967690;28;20462;-74
2022/06/24 09:53:32;;;;;;;1.50;0.90;;;24.40;98.20;;;;;;4974612;28;20867;-75
2022/06/24 09:56:00;;;;;;;1.50;0.80;;;24.50;98.20;;;;;;4962235;28;20490;-75
2022/06/24 09:58:27;;;;;;;1.50;0.90;;;24.60;98.20;;;;;;4997088;28;20548;-75
2022/06/24 10:00:53;;;;;;;1.50;0.80;;;24.70;98.20;;;;;;4955972;28;21168;-76
2022/06/24 10:03:20;;;;;;;1.50;0.90;;;24.90;98.20;;;;;;4990729;28;20498;-74
2022/06/24 10:05:51;;;;;;;1.53;0.90;;;25.20;98.20;;;;;;4961077;28;20462;-75
2022/06/24 10:08:19;;;;;;;1.50;0.90;;;25.50;98.20;;;;;;4982913;28;20560;-74
2022/06/24 10:10:48;;;;;;;1.50;0.80;;;25.90;97.90;;;;;;4970370;28;20497;-74
2022/06/24 10:13:24;;;;;;;1.50;0.80;;;26.30;97.40;;;;;;4968552;28;20473;-76
2022/06/24 10:15:51;;;;;;;1.60;1.10;;;26.70;94.70;;;;;;4968417;28;20489;-75
2022/06/24 10:18:22;;;;;;;1.50;0.80;;;27.00;96.00;;;;;;4965236;28;20826;-74
2022/06/24 10:20:52;;;;;;;1.50;0.80;;;27.40;94.50;;;;;;4958737;28;20476;-75
2022/06/24 10:23:39;;;;;;;1.50;0.90;;;27.70;94.10;;;;;;4995194;28;21090;-75
2022/06/24 10:26:14;;;;;;;1.50;0.97;;;27.60;93.90;;;;;;4971283;28;20461;-73
2022/06/24 10:29:22;;;;;;;1.50;0.80;;;27.70;92.90;;;;;;4971710;28;20531;-74
2022/06/24 10:32:06;;;;;;;1.50;0.80;;;27.90;91.30;;;;;;4975909;28;20483;-75
2022/06/24 10:34:44;;;;;;;1.50;0.80;;;28.20;90.10;;;;;;4979642;28;20473;-75
2022/06/24 10:37:30;;;;;;;1.50;0.80;;;28.60;91.10;;;;;;4979926;28;20976;-74
2022/06/24 10:39:59;;;;;;;1.50;0.80;;;29.10;89.60;;;;;;4970827;28;20489;-76
2022/06/24 10:42:30;;;;;;;1.50;0.80;;;29.60;87.60;;;;;;4989758;28;21248;-75
2022/06/24 10:44:59;;;;;;;1.50;0.80;;;29.90;87.10;;;;;;4976760;28;20593;-75
2022/06/24 10:47:43;;;;;;;1.50;0.80;;;30.20;83.50;;;;;;4971757;28;20762;-74
2022/06/24 10:50:20;;;;;;;1.50;0.80;;;30.40;82.60;;;;;;4974074;28;20548;-75
2022/06/24 10:53:03;;;;;;;1.50;0.80;;;30.40;83.30;;;;;;4975184;28;20528;-74
2022/06/24 10:55:41;;;;;;;1.50;0.80;;;30.50;84.80;;;;;;4968752;28;20863;-75
2022/06/24 10:58:11;;;;;;;1.50;0.80;;;30.80;80.50;;;;;;4991970;28;20989;-76
2022/06/24 11:00:48;;;;;;;1.50;0.80;;;31.00;80.80;;;;;;4970954;28;20210;-75
2022/06/24 11:03:25;;;;;;;1.50;0.80;;;30.90;80.10;;;;;;4962530;28;20491;-76
2022/06/24 11:05:52;;;;;;;1.40;0.80;;;30.90;82.60;;;;;;4963886;28;20289;-75
2022/06/24 11:08:23;;;;;;;1.50;0.80;;;31.00;81.10;;;;;;4997516;28;20503;-76
2022/06/24 11:10:51;;;;;;;1.47;0.80;;;31.00;79.10;;;;;;4971121;28;20210;-74
2022/06/24 11:13:23;;;;;;;1.47;0.80;;;30.90;78.70;;;;;;4972909;28;20217;-75
2022/06/24 11:15:53;;;;;;;1.50;0.80;;;30.80;78.80;;;;;;4963591;28;20236;-74
2022/06/24 11:18:22;;;;;;;1.43;0.80;;;30.80;79.70;;;;;;5001843;28;20236;-74
2022/06/24 11:20:51;;;;;;;1.47;0.90;;;30.80;80.40;;;;;;4973059;28;20210;-74
2022/06/24 11:23:20;;;;;;;1.43;0.80;;;30.50;80.00;;;;;;4972021;28;20214;-74
2022/06/24 11:25:49;;;;;;;1.50;0.80;;;30.50;81.60;;;;;;4967785;28;20655;-74
2022/06/24 11:28:22;;;;;;;1.50;0.90;;;30.50;81.60;;;;;;5002240;28;21119;-76
2022/06/24 11:30:50;;;;;;;1.50;0.80;;;30.30;80.00;;;;;;4962739;28;20501;-74
2022/06/24 11:33:18;;;;;;;1.50;0.80;;;29.80;78.80;;;;;;4980280;28;20509;-76
2022/06/24 11:35:48;;;;;;;1.50;0.80;;;29.30;80.80;;;;;;4976207;28;20500;-75
2022/06/24 11:38:17;;;;;;;1.50;0.80;;;29.00;82.90;;;;;;4962131;28;20483;-75
2022/06/24 11:40:50;;;;;;;1.50;0.80;;;28.70;82.70;;;;;;4970273;28;20469;-75
2022/06/24 11:43:19;;;;;;;1.50;0.80;;;28.40;83.50;;;;;;4974932;28;20576;-74
2022/06/24 11:45:48;;;;;;;1.47;0.80;;;28.10;84.50;;;;;;4976735;28;20469;-74
2022/06/24 11:48:21;;;;;;;1.50;0.80;;;27.90;84.80;;;;;;5009574;28;20493;-75
2022/06/24 11:50:48;;;;;;;1.50;0.80;;;27.90;84.30;;;;;;4987894;23;20439;-75
2022/06/24 11:53:17;;;;;;;1.50;0.90;;;28.00;85.40;;;;;;4948603;28;20481;-73
2022/06/24 11:55:51;;;;;;;1.40;0.87;;;28.10;83.30;;;;;;4949518;28;20481;-73
2022/06/24 11:58:20;;;;;;;1.50;0.80;;;28.10;83.80;;;;;;4949471;28;20505;-73
2022/06/24 12:00:48;;;;;;;1.80;1.13;;;28.20;83.80;;;;;;4943112;28;20469;-71
2022/06/24 12:03:16;;;;;;;1.47;0.80;;;28.50;81.70;;;;;;4964289;28;20484;-73
2022/06/24 12:05:46;;;;;;;1.47;0.80;;;28.90;82.40;;;;;;4952518;28;20520;-73
2022/06/24 12:08:14;;;;;;;1.50;0.80;;;29.20;80.70;;;;;;4940773;28;21066;-74
2022/06/24 12:10:56;;;;;;;1.50;0.80;;;29.50;80.10;;;;;;4948658;28;21082;-74
2022/06/24 12:13:29;;;;;;;1.50;0.90;;;29.90;78.90;;;;;;4954996;28;20470;-74
2022/06/24 12:15:57;;;;;;;1.47;0.80;;;30.40;78.30;;;;;;4939523;28;20525;-74
2022/06/24 12:18:25;;;;;;;1.43;0.80;;;30.70;77.00;;;;;;4948068;28;20557;-74
2022/06/24 12:20:56;;;;;;;1.43;0.80;;;31.00;76.70;;;;;;4949216;28;20597;-74
2022/06/24 12:23:25;;;;;;;1.40;0.80;;;31.10;74.70;;;;;;4953911;28;20470;-75
2022/06/24 12:25:53;;;;;;;1.50;0.90;;;31.30;75.60;;;;;;4941683;28;20474;-74
2022/06/24 12:28:24;;;;;;;1.50;0.90;;;31.50;75.10;;;;;;4967931;28;20552;-75
2022/06/24 12:31:02;;;;;;;1.47;0.80;;;31.70;73.30;;;;;;4943692;28;20592;-74
2022/06/24 12:33:31;;;;;;;1.47;0.80;;;31.90;74.30;;;;;;4959056;28;20305;-74
2022/06/24 12:36:13;;;;;;;1.43;0.80;;;32.20;73.90;;;;;;4951798;28;20218;-74
2022/06/24 12:38:42;;;;;;;1.43;0.80;;;32.20;74.50;;;;;;4950777;28;20215;-74
2022/06/24 12:41:12;;;;;;;1.43;0.80;;;32.00;73.90;;;;;;4951365;28;20248;-74
2022/06/24 12:43:57;;;;;;;1.43;0.80;;;32.00;73.70;;;;;;4961176;28;20208;-75
2022/06/24 12:46:27;;;;;;;1.50;0.80;;;32.00;75.10;;;;;;4954307;28;20209;-77
2022/06/24 12:51:46;;;;;;;1.90;1.50;;;32.30;75.40;;;;;;4937815;28;20496;-73
2022/06/24 12:54:16;;;;;;;1.50;0.80;;;32.40;71.70;;;;;;4947544;28;20214;-75
2022/06/24 12:56:44;;;;;;;1.43;0.80;;;32.40;73.10;;;;;;4950307;28;20222;-74
2022/06/24 12:59:13;;;;;;;1.42;0.80;;;32.50;73.60;;;;;;4952289;28;20235;-74
2022/06/24 13:01:42;;;;;;;1.47;0.80;;;32.70;73.40;;;;;;4947992;28;20238;-74
2022/06/24 13:04:10;;;;;;;1.47;0.80;;;33.00;73.50;;;;;;4957874;28;20262;-75
2022/06/24 13:06:38;;;;;;;1.42;0.80;;;33.10;73.40;;;;;;4951255;28;20207;-74
2022/06/24 13:09:06;;;;;;;1.48;0.80;;;33.10;70.30;;;;;;4948796;28;20202;-74
2022/06/24 13:11:35;;;;;;;1.43;0.80;;;32.90;70.30;;;;;;4949520;28;20288;-74
2022/06/24 13:14:04;;;;;;;1.48;0.80;;;32.80;71.60;;;;;;4953209;28;20214;-74
2022/06/24 13:16:33;;;;;;;1.42;0.80;;;32.90;72.80;;;;;;4943628;28;20237;-74
2022/06/24 13:19:00;;;;;;;1.42;0.80;;;33.00;71.40;;;;;;4954609;28;20217;-75
2022/06/24 13:21:28;;;;;;;1.42;0.80;;;33.10;71.20;;;;;;4952702;28;20218;-74
2022/06/24 13:23:55;;;;;;;1.42;0.80;;;33.10;70.50;;;;;;4950363;28;20214;-72
2022/06/24 13:26:22;;;;;;;1.47;0.80;;;32.80;69.90;;;;;;4944658;28;20226;-74
2022/06/24 13:28:50;;;;;;;1.43;0.80;;;32.50;72.40;;;;;;4948724;28;20213;-74
2022/06/24 13:31:17;;;;;;;1.50;0.90;;;32.20;71.60;;;;;;4952430;28;20222;-75
2022/06/24 13:33:46;;;;;;;1.47;0.80;;;32.00;73.50;;;;;;4952664;28;20219;-75